createdAt,value
2018-08-30T00:00:46.100Z,53.70
2018-08-30T00:01:50.292Z,53.60
2018-08-30T00:02:54.668Z,53.70
2018-08-30T00:03:59.121Z,53.70
2018-08-30T00:05:03.390Z,53.70
2018-08-30T00:06:07.584Z,53.70
2018-08-30T00:07:12.015Z,53.70
2018-08-30T00:08:16.332Z,53.70
2018-08-30T00:09:20.578Z,53.70
2018-08-30T00:10:24.993Z,53.80
2018-08-30T00:11:29.276Z,53.80
2018-08-30T00:12:33.727Z,53.80
2018-08-30T00:13:38.219Z,53.80
2018-08-30T00:14:42.556Z,53.80
2018-08-30T00:15:46.852Z,53.80
2018-08-30T00:16:51.124Z,53.80
2018-08-30T00:17:55.378Z,53.80
2018-08-30T00:18:59.831Z,53.80
2018-08-30T00:20:04.161Z,53.80
2018-08-30T00:21:08.660Z,53.80
2018-08-30T00:22:13.047Z,53.80
2018-08-30T00:23:17.533Z,53.80
2018-08-30T00:24:21.904Z,53.80
2018-08-30T00:25:26.229Z,53.80
2018-08-30T00:26:30.660Z,53.80
2018-08-30T00:27:35.101Z,53.80
2018-08-30T00:28:39.408Z,53.80
2018-08-30T00:29:43.848Z,53.80
2018-08-30T00:30:48.126Z,53.90
2018-08-30T00:31:52.473Z,53.90
2018-08-30T00:32:56.892Z,53.90
2018-08-30T00:34:01.222Z,53.90
2018-08-30T00:35:05.396Z,53.90
2018-08-30T00:36:09.825Z,53.90
2018-08-30T00:37:13.987Z,53.90
2018-08-30T00:38:18.200Z,53.90
2018-08-30T00:39:22.563Z,53.90
2018-08-30T00:40:26.921Z,53.90
2018-08-30T00:41:31.459Z,53.90
2018-08-30T00:42:35.477Z,53.90
2018-08-30T00:43:39.769Z,53.90
2018-08-30T00:44:44.203Z,53.90
2018-08-30T00:45:48.606Z,53.90
2018-08-30T00:46:52.809Z,53.90
2018-08-30T00:47:57.156Z,53.90
2018-08-30T00:49:01.597Z,53.90
2018-08-30T00:50:05.893Z,53.90
2018-08-30T00:51:10.247Z,53.90
2018-08-30T00:52:14.670Z,53.90
2018-08-30T00:53:18.888Z,53.90
2018-08-30T00:54:23.222Z,54.00
2018-08-30T00:55:27.386Z,53.90
2018-08-30T00:56:31.648Z,54.00
2018-08-30T00:57:36.004Z,54.00
2018-08-30T00:58:40.337Z,54.00
2018-08-30T00:59:44.684Z,54.00
2018-08-30T01:00:49.002Z,54.00
2018-08-30T01:01:53.367Z,54.00
2018-08-30T01:02:57.762Z,54.00
2018-08-30T01:04:02.102Z,54.00
2018-08-30T01:05:06.540Z,54.00
2018-08-30T01:06:10.835Z,54.00
2018-08-30T01:07:15.201Z,54.10
2018-08-30T01:08:19.544Z,54.10
2018-08-30T01:09:23.944Z,54.10
2018-08-30T01:10:28.378Z,54.10
2018-08-30T01:11:32.834Z,54.10
2018-08-30T01:12:37.776Z,54.10
2018-08-30T01:13:42.137Z,54.10
2018-08-30T01:14:46.512Z,54.10
2018-08-30T01:15:50.703Z,54.10
2018-08-30T01:16:54.995Z,54.20
2018-08-30T01:17:59.284Z,54.20
2018-08-30T01:19:03.504Z,54.20
2018-08-30T01:20:07.944Z,54.20
2018-08-30T01:21:12.253Z,54.20
2018-08-30T01:22:16.614Z,54.20
2018-08-30T01:23:20.994Z,54.20
2018-08-30T01:24:25.294Z,54.30
2018-08-30T01:25:29.739Z,54.30
2018-08-30T01:26:33.988Z,54.30
2018-08-30T01:27:38.227Z,54.30
2018-08-30T01:28:42.588Z,54.40
2018-08-30T01:29:46.894Z,54.30
2018-08-30T01:30:51.151Z,54.30
2018-08-30T01:31:55.547Z,54.30
2018-08-30T01:32:59.805Z,54.30
2018-08-30T01:34:04.169Z,54.30
2018-08-30T01:35:08.320Z,54.30
2018-08-30T01:36:12.677Z,54.30
2018-08-30T01:37:17.076Z,54.30
2018-08-30T01:38:21.428Z,54.30
2018-08-30T01:39:25.635Z,54.30
2018-08-30T01:40:30.037Z,54.30
2018-08-30T01:41:34.276Z,54.30
2018-08-30T01:42:38.513Z,54.30
2018-08-30T01:43:42.786Z,54.30
2018-08-30T01:44:47.026Z,54.30
2018-08-30T01:45:51.465Z,54.30
2018-08-30T01:46:55.907Z,54.30
2018-08-30T01:48:00.166Z,54.30
2018-08-30T01:49:04.486Z,54.30
2018-08-30T01:50:08.796Z,54.30
2018-08-30T01:51:13.019Z,54.30
2018-08-30T01:52:17.320Z,54.30
2018-08-30T01:53:21.501Z,54.40
2018-08-30T01:54:25.715Z,54.40
2018-08-30T01:55:30.143Z,54.40
2018-08-30T01:56:34.519Z,54.30
2018-08-30T01:57:38.650Z,54.30
2018-08-30T01:58:42.993Z,54.40
2018-08-30T01:59:47.441Z,54.30
2018-08-30T02:00:51.820Z,54.40
2018-08-30T02:01:56.112Z,54.30
2018-08-30T02:03:00.483Z,54.30
2018-08-30T02:04:04.881Z,54.30
2018-08-30T02:05:09.261Z,54.30
2018-08-30T02:06:13.684Z,54.40
2018-08-30T02:07:17.938Z,54.30
2018-08-30T02:08:22.331Z,54.30
2018-08-30T02:09:26.681Z,54.40
2018-08-30T02:10:31.101Z,54.30
2018-08-30T02:11:35.507Z,54.40
2018-08-30T02:12:39.735Z,54.30
2018-08-30T02:13:43.883Z,54.30
2018-08-30T02:14:48.237Z,54.40
2018-08-30T02:15:52.484Z,54.40
2018-08-30T02:16:56.884Z,54.40
2018-08-30T02:18:01.241Z,54.40
2018-08-30T02:19:05.522Z,54.40
2018-08-30T02:20:09.802Z,54.40
2018-08-30T02:21:13.977Z,54.40
2018-08-30T02:22:18.244Z,54.40
2018-08-30T02:23:22.559Z,54.40
2018-08-30T02:24:26.738Z,54.40
2018-08-30T02:25:31.185Z,54.40
2018-08-30T02:26:35.506Z,54.40
2018-08-30T02:27:39.929Z,54.40
2018-08-30T02:28:44.287Z,54.40
2018-08-30T02:29:48.694Z,55.10
2018-08-30T02:30:52.964Z,54.40
2018-08-30T02:31:57.333Z,54.40
2018-08-30T02:33:01.820Z,54.40
2018-08-30T02:34:06.049Z,54.40
2018-08-30T02:35:10.401Z,54.40
2018-08-30T02:36:14.623Z,54.40
2018-08-30T02:37:19.052Z,54.40
2018-08-30T02:38:23.441Z,54.40
2018-08-30T02:39:27.831Z,54.40
2018-08-30T02:40:32.263Z,54.40
2018-08-30T02:41:36.554Z,54.40
2018-08-30T02:42:40.716Z,54.40
2018-08-30T02:43:45.156Z,54.40
2018-08-30T02:44:49.608Z,54.40
2018-08-30T02:45:54.104Z,54.50
2018-08-30T02:46:58.406Z,54.40
2018-08-30T02:48:02.774Z,54.40
2018-08-30T02:49:07.135Z,54.50
2018-08-30T02:50:11.468Z,54.40
2018-08-30T02:51:15.690Z,54.40
2018-08-30T02:52:20.093Z,54.40
2018-08-30T02:53:24.445Z,54.40
2018-08-30T02:54:28.867Z,54.50
2018-08-30T02:55:33.110Z,54.40
2018-08-30T02:56:37.326Z,54.40
2018-08-30T02:57:41.685Z,54.40
2018-08-30T02:58:46.042Z,54.50
2018-08-30T02:59:50.396Z,54.50
2018-08-30T03:00:54.657Z,54.50
2018-08-30T03:01:59.050Z,54.50
2018-08-30T03:03:03.438Z,54.50
2018-08-30T03:04:07.687Z,54.50
2018-08-30T03:05:11.951Z,54.50
2018-08-30T03:06:16.121Z,54.60
2018-08-30T03:07:20.472Z,54.50
2018-08-30T03:08:24.785Z,54.50
2018-08-30T03:09:29.133Z,54.60
2018-08-30T03:10:33.457Z,54.50
2018-08-30T03:11:37.707Z,54.60
2018-08-30T03:12:42.082Z,54.50
2018-08-30T03:13:46.411Z,54.60
2018-08-30T03:14:50.580Z,54.60
2018-08-30T03:15:54.924Z,54.60
2018-08-30T03:16:59.159Z,54.60
2018-08-30T03:18:03.536Z,54.70
2018-08-30T03:19:07.922Z,54.70
2018-08-30T03:20:12.288Z,54.60
2018-08-30T03:21:16.540Z,54.70
2018-08-30T03:22:20.737Z,54.70
2018-08-30T03:23:25.068Z,54.70
2018-08-30T03:24:29.264Z,54.70
2018-08-30T03:25:33.599Z,54.80
2018-08-30T03:26:37.838Z,54.70
2018-08-30T03:27:42.128Z,54.80
2018-08-30T03:28:46.419Z,54.80
2018-08-30T03:29:50.865Z,54.80
2018-08-30T03:30:55.202Z,54.80
2018-08-30T03:31:59.468Z,54.90
2018-08-30T03:33:03.877Z,54.80
2018-08-30T03:34:08.323Z,54.70
2018-08-30T03:35:12.590Z,54.80
2018-08-30T03:36:19.811Z,54.80
2018-08-30T03:37:24.219Z,54.80
2018-08-30T03:38:28.602Z,54.80
2018-08-30T03:39:32.917Z,54.80
2018-08-30T03:40:37.269Z,54.90
2018-08-30T03:41:41.709Z,54.90
2018-08-30T03:42:46.155Z,54.90
2018-08-30T03:43:50.559Z,54.90
2018-08-30T03:44:54.859Z,54.90
2018-08-30T03:45:59.267Z,54.90
2018-08-30T03:47:03.723Z,54.90
2018-08-30T03:48:07.865Z,54.90
2018-08-30T03:49:12.265Z,55.00
2018-08-30T03:50:16.750Z,55.00
2018-08-30T03:51:21.169Z,54.90
2018-08-30T03:52:25.558Z,55.00
2018-08-30T03:53:29.936Z,55.00
2018-08-30T03:54:34.316Z,54.90
2018-08-30T03:55:38.682Z,54.90
2018-08-30T03:56:42.964Z,55.00
2018-08-30T03:57:47.242Z,55.00
2018-08-30T03:58:51.461Z,55.00
2018-08-30T03:59:55.716Z,55.00
2018-08-30T04:01:00.000Z,55.00
2018-08-30T04:02:04.209Z,55.00
2018-08-30T04:03:08.441Z,55.00
2018-08-30T04:04:12.945Z,55.00
2018-08-30T04:05:17.102Z,55.00
2018-08-30T04:06:21.442Z,55.00
2018-08-30T04:07:25.935Z,55.10
2018-08-30T04:08:30.329Z,55.10
2018-08-30T04:09:34.598Z,55.10
2018-08-30T04:10:38.951Z,55.10
2018-08-30T04:11:43.297Z,55.10
2018-08-30T04:12:47.548Z,55.10
2018-08-30T04:13:51.774Z,55.10
2018-08-30T04:14:56.307Z,55.20
2018-08-30T04:16:00.706Z,55.20
2018-08-30T04:17:04.998Z,55.10
2018-08-30T04:18:09.324Z,55.10
2018-08-30T04:19:15.603Z,55.10
2018-08-30T04:20:20.373Z,55.10
2018-08-30T04:21:25.531Z,55.10
2018-08-30T04:22:30.050Z,55.20
2018-08-30T04:23:34.267Z,55.20
2018-08-30T04:24:38.667Z,55.20
2018-08-30T04:25:42.892Z,55.20
2018-08-30T04:26:47.335Z,55.20
2018-08-30T04:27:51.725Z,55.20
2018-08-30T04:28:56.640Z,55.20
2018-08-30T04:30:01.608Z,55.10
2018-08-30T04:31:08.183Z,55.20
2018-08-30T04:32:13.088Z,55.20
2018-08-30T04:33:17.477Z,55.20
2018-08-30T04:34:21.959Z,55.30
2018-08-30T04:35:26.287Z,55.20
2018-08-30T04:36:30.691Z,55.20
2018-08-30T04:37:35.157Z,55.30
2018-08-30T04:38:39.579Z,55.20
2018-08-30T04:39:44.321Z,55.30
2018-08-30T04:40:48.728Z,55.30
2018-08-30T04:41:53.159Z,55.30
2018-08-30T04:42:57.429Z,55.30
2018-08-30T04:44:01.898Z,55.40
2018-08-30T04:45:06.141Z,55.40
2018-08-30T04:46:10.363Z,55.40
2018-08-30T04:47:14.613Z,55.30
2018-08-30T04:48:19.150Z,55.40
2018-08-30T04:49:23.553Z,56.00
2018-08-30T04:50:27.970Z,55.40
2018-08-30T04:51:32.237Z,55.40
2018-08-30T04:52:36.626Z,55.40
2018-08-30T04:53:40.917Z,55.40
2018-08-30T04:54:45.167Z,55.40
2018-08-30T04:55:49.342Z,55.40
2018-08-30T04:56:53.723Z,55.40
2018-08-30T04:57:58.067Z,55.40
2018-08-30T04:59:02.392Z,55.40
2018-08-30T05:00:06.800Z,55.40
2018-08-30T05:01:11.977Z,55.50
2018-08-30T05:02:16.464Z,55.40
2018-08-30T05:03:20.837Z,55.40
2018-08-30T05:04:25.113Z,55.40
2018-08-30T05:05:29.533Z,55.50
2018-08-30T05:06:33.984Z,55.50
2018-08-30T05:07:38.542Z,55.50
2018-08-30T05:08:42.846Z,55.50
2018-08-30T05:09:47.200Z,55.50
2018-08-30T05:10:51.617Z,55.50
2018-08-30T05:11:55.862Z,55.50
2018-08-30T05:13:00.569Z,55.50
2018-08-30T05:14:04.935Z,55.50
2018-08-30T05:15:09.347Z,55.50
2018-08-30T05:16:13.687Z,55.50
2018-08-30T05:17:17.913Z,55.50
2018-08-30T05:18:22.258Z,55.60
2018-08-30T05:19:26.549Z,55.50
2018-08-30T05:20:31.025Z,55.50
2018-08-30T05:21:35.569Z,55.60
2018-08-30T05:22:39.703Z,55.60
2018-08-30T05:23:44.526Z,55.60
2018-08-30T05:24:48.779Z,55.60
2018-08-30T05:25:52.917Z,55.60
2018-08-30T05:26:57.231Z,55.60
2018-08-30T05:28:01.512Z,55.60
2018-08-30T05:29:11.684Z,55.60
2018-08-30T05:30:16.504Z,55.60
2018-08-30T05:31:21.049Z,55.60
2018-08-30T05:32:25.319Z,55.60
2018-08-30T05:33:29.765Z,55.70
2018-08-30T05:34:33.963Z,55.70
2018-08-30T05:35:38.151Z,55.80
2018-08-30T05:36:42.535Z,55.70
2018-08-30T05:37:47.031Z,55.80
2018-08-30T05:38:51.434Z,55.70
2018-08-30T05:39:55.681Z,55.90
2018-08-30T05:41:00.100Z,55.90
2018-08-30T05:42:04.432Z,55.90
2018-08-30T05:43:08.872Z,55.80
2018-08-30T05:44:13.249Z,56.00
2018-08-30T05:45:17.463Z,55.90
2018-08-30T05:46:21.846Z,55.90
2018-08-30T05:47:26.139Z,56.10
2018-08-30T05:48:30.551Z,56.10
2018-08-30T05:49:34.900Z,56.10
2018-08-30T05:50:39.145Z,56.10
2018-08-30T05:51:43.549Z,56.30
2018-08-30T05:52:47.917Z,56.30
2018-08-30T05:53:52.076Z,56.30
2018-08-30T05:54:56.295Z,56.50
2018-08-30T05:56:00.699Z,56.40
2018-08-30T05:57:04.894Z,56.50
2018-08-30T05:58:09.048Z,56.50
2018-08-30T05:59:13.424Z,56.60
2018-08-30T06:00:17.677Z,56.60
2018-08-30T06:01:22.173Z,56.60
2018-08-30T06:02:26.530Z,56.60
2018-08-30T06:03:30.979Z,56.60
2018-08-30T06:04:35.194Z,56.60
2018-08-30T06:05:39.388Z,56.60
2018-08-30T06:06:43.653Z,56.80
2018-08-30T06:07:48.102Z,56.80
2018-08-30T06:08:52.350Z,56.90
2018-08-30T06:09:56.716Z,57.10
2018-08-30T06:11:01.111Z,57.10
2018-08-30T06:12:05.255Z,57.10
2018-08-30T06:13:09.800Z,57.10
2018-08-30T06:14:13.988Z,57.20
2018-08-30T06:15:18.178Z,57.10
2018-08-30T06:16:22.715Z,57.20
2018-08-30T06:17:27.008Z,57.20
2018-08-30T06:18:31.296Z,57.10
2018-08-30T06:19:35.904Z,57.10
2018-08-30T06:20:40.192Z,57.20
2018-08-30T06:21:44.529Z,57.20
2018-08-30T06:22:51.829Z,57.10
2018-08-30T06:23:56.313Z,57.10
2018-08-30T06:24:08.588Z,57.10
2018-08-30T06:25:13.004Z,57.20
2018-08-30T06:26:17.378Z,57.10
2018-08-30T06:27:21.694Z,57.30
2018-08-30T06:28:26.005Z,57.20
2018-08-30T06:29:30.341Z,57.10
2018-08-30T06:29:42.444Z,57.20
2018-08-30T06:30:46.807Z,57.20
2018-08-30T06:31:51.132Z,57.30
2018-08-30T06:32:55.810Z,57.30
2018-08-30T06:34:00.224Z,57.40
2018-08-30T06:35:04.647Z,57.30
2018-08-30T06:36:08.952Z,57.30
2018-08-30T06:37:13.326Z,57.50
2018-08-30T06:38:17.728Z,57.40
2018-08-30T06:39:22.002Z,57.30
2018-08-30T06:40:26.348Z,57.00
2018-08-30T06:41:30.646Z,57.30
2018-08-30T06:42:35.186Z,57.30
2018-08-30T06:43:39.605Z,57.40
2018-08-30T06:44:43.949Z,57.50
2018-08-30T06:45:48.253Z,57.60
2018-08-30T06:46:52.532Z,57.60
2018-08-30T06:47:56.692Z,57.90
2018-08-30T06:49:01.180Z,58.00
2018-08-30T06:50:05.352Z,58.00
2018-08-30T06:51:09.772Z,57.90
2018-08-30T06:52:14.012Z,58.00
2018-08-30T06:53:18.461Z,58.10
2018-08-30T06:54:22.711Z,58.20
2018-08-30T06:55:27.185Z,58.30
2018-08-30T06:56:31.678Z,57.90
2018-08-30T06:57:36.310Z,58.10
2018-08-30T06:58:40.534Z,58.30
2018-08-30T06:59:44.864Z,58.40
2018-08-30T07:00:50.841Z,58.40
2018-08-30T07:01:55.231Z,58.40
2018-08-30T07:02:59.825Z,58.40
2018-08-30T07:04:04.181Z,58.40
2018-08-30T07:05:08.590Z,58.50
2018-08-30T07:06:13.406Z,58.50
2018-08-30T07:07:17.738Z,58.40
2018-08-30T07:08:22.132Z,58.40
2018-08-30T07:09:26.566Z,58.50
2018-08-30T07:10:31.000Z,58.50
2018-08-30T07:11:35.310Z,58.50
2018-08-30T07:12:39.558Z,58.40
2018-08-30T07:13:47.773Z,58.50
2018-08-30T07:14:52.165Z,58.50
2018-08-30T07:15:56.300Z,58.60
2018-08-30T07:17:00.590Z,58.60
2018-08-30T07:18:04.906Z,58.30
2018-08-30T07:19:09.239Z,58.50
2018-08-30T07:20:13.497Z,58.60
2018-08-30T07:21:17.926Z,58.40
2018-08-30T07:22:22.412Z,58.40
2018-08-30T07:23:26.739Z,58.40
2018-08-30T07:24:30.993Z,58.50
2018-08-30T07:25:35.254Z,58.30
2018-08-30T07:26:39.458Z,58.00
2018-08-30T07:27:43.845Z,57.80
2018-08-30T07:28:51.134Z,57.90
2018-08-30T07:29:55.528Z,57.70
2018-08-30T07:30:59.919Z,57.70
2018-08-30T07:32:04.159Z,57.70
2018-08-30T07:33:09.151Z,57.60
2018-08-30T07:34:13.498Z,57.90
2018-08-30T07:35:17.697Z,58.70
2018-08-30T07:36:21.871Z,58.50
2018-08-30T07:37:26.307Z,58.20
2018-08-30T07:38:30.474Z,57.90
2018-08-30T07:39:34.645Z,58.00
2018-08-30T07:40:38.940Z,58.10
2018-08-30T07:41:43.176Z,58.00
2018-08-30T07:42:47.522Z,58.60
2018-08-30T07:43:52.040Z,58.80
2018-08-30T07:44:56.501Z,58.90
2018-08-30T07:46:05.510Z,59.10
2018-08-30T07:47:09.817Z,59.00
2018-08-30T07:48:14.149Z,58.80
2018-08-30T07:49:24.282Z,58.90
2018-08-30T07:50:28.592Z,58.80
2018-08-30T07:51:32.857Z,58.80
2018-08-30T07:52:37.237Z,58.80
2018-08-30T07:53:41.540Z,58.70
2018-08-30T07:54:46.039Z,58.80
2018-08-30T07:55:51.028Z,58.80
2018-08-30T07:56:55.423Z,58.70
2018-08-30T07:58:00.804Z,58.60
2018-08-30T07:59:05.249Z,58.60
2018-08-30T08:00:09.635Z,58.70
2018-08-30T08:01:19.688Z,58.70
2018-08-30T08:02:29.178Z,58.70
2018-08-30T08:03:34.272Z,58.60
2018-08-30T08:04:38.405Z,58.60
2018-08-30T08:05:44.589Z,58.50
2018-08-30T08:06:49.004Z,58.60
2018-08-30T08:07:53.347Z,58.50
2018-08-30T08:08:57.705Z,58.50
2018-08-30T08:10:01.964Z,58.60
2018-08-30T08:11:06.291Z,58.60
2018-08-30T08:12:10.613Z,58.70
2018-08-30T08:13:14.979Z,58.80
2018-08-30T08:14:19.432Z,58.70
2018-08-30T08:15:23.712Z,58.70
2018-08-30T08:16:27.934Z,58.40
2018-08-30T08:17:32.356Z,58.60
2018-08-30T08:18:36.778Z,58.30
2018-08-30T08:19:41.218Z,58.80
2018-08-30T08:20:45.610Z,58.80
2018-08-30T08:21:50.089Z,58.80
2018-08-30T08:22:54.403Z,58.90
2018-08-30T08:23:58.934Z,58.60
2018-08-30T08:25:03.212Z,59.00
2018-08-30T08:26:08.223Z,58.10
2018-08-30T08:27:12.573Z,58.10
2018-08-30T08:28:16.931Z,58.10
2018-08-30T08:29:21.306Z,58.00
2018-08-30T08:30:25.801Z,58.00
2018-08-30T08:31:30.086Z,57.80
2018-08-30T08:32:34.549Z,57.70
2018-08-30T08:33:38.858Z,57.70
2018-08-30T08:33:56.007Z,57.70
2018-08-30T08:35:00.517Z,57.80
2018-08-30T08:36:04.905Z,57.90
2018-08-30T08:37:09.206Z,57.90
2018-08-30T08:38:13.653Z,58.20
2018-08-30T08:39:18.041Z,58.50
2018-08-30T08:40:22.470Z,58.80
2018-08-30T08:41:26.948Z,58.80
2018-08-30T08:42:33.915Z,59.10
2018-08-30T08:43:38.344Z,58.90
2018-08-30T08:44:42.659Z,58.90
2018-08-30T08:45:48.104Z,59.30
2018-08-30T08:46:52.467Z,59.50
2018-08-30T08:47:59.080Z,59.30
2018-08-30T08:49:04.060Z,59.50
2018-08-30T08:50:08.541Z,59.30
2018-08-30T08:51:12.872Z,59.30
2018-08-30T08:52:18.912Z,59.20
2018-08-30T08:53:23.253Z,59.30
2018-08-30T08:54:27.663Z,59.60
2018-08-30T08:55:32.098Z,59.70
2018-08-30T08:56:36.476Z,59.80
2018-08-30T08:57:40.904Z,59.80
2018-08-30T08:58:45.282Z,60.10
2018-08-30T08:59:49.626Z,60.20
2018-08-30T09:00:53.970Z,60.60
2018-08-30T09:01:58.196Z,60.90
2018-08-30T09:03:02.381Z,61.00
2018-08-30T09:04:06.696Z,61.10
2018-08-30T09:05:11.159Z,61.00
2018-08-30T09:06:15.482Z,61.10
2018-08-30T09:07:20.667Z,61.00
2018-08-30T09:08:24.843Z,61.10
2018-08-30T09:09:29.179Z,61.30
2018-08-30T09:10:33.681Z,61.10
2018-08-30T09:11:37.942Z,61.30
2018-08-30T09:12:42.416Z,61.40
2018-08-30T09:13:46.924Z,61.00
2018-08-30T09:14:51.280Z,60.80
2018-08-30T09:15:55.744Z,60.70
2018-08-30T09:17:00.188Z,60.70
2018-08-30T09:18:04.416Z,60.20
2018-08-30T09:19:08.682Z,60.70
2018-08-30T09:20:13.032Z,60.40
2018-08-30T09:21:17.499Z,60.40
2018-08-30T09:22:21.887Z,60.50
2018-08-30T09:23:26.098Z,60.60
2018-08-30T09:24:30.323Z,61.00
2018-08-30T09:25:34.670Z,60.60
2018-08-30T09:26:38.996Z,60.70
2018-08-30T09:27:43.464Z,61.80
2018-08-30T09:28:47.664Z,61.20
2018-08-30T09:29:52.090Z,61.30
2018-08-30T09:30:57.178Z,61.30
2018-08-30T09:32:02.544Z,61.90
2018-08-30T09:33:06.872Z,61.90
2018-08-30T09:34:11.722Z,62.10
2018-08-30T09:35:16.084Z,62.10
2018-08-30T09:36:20.490Z,62.60
2018-08-30T09:37:24.964Z,61.90
2018-08-30T09:38:29.437Z,61.80
2018-08-30T09:39:33.799Z,61.50
2018-08-30T09:40:38.199Z,60.60
2018-08-30T09:41:42.487Z,60.10
2018-08-30T09:42:46.972Z,59.70
2018-08-30T09:43:51.589Z,59.40
2018-08-30T09:44:55.788Z,59.40
2018-08-30T09:46:00.203Z,59.50
2018-08-30T09:47:04.574Z,59.50
2018-08-30T09:48:09.066Z,59.30
2018-08-30T09:49:13.323Z,59.20
2018-08-30T09:50:17.829Z,59.00
2018-08-30T09:51:22.334Z,58.90
2018-08-30T09:52:26.720Z,59.00
2018-08-30T09:53:31.212Z,58.90
2018-08-30T09:54:35.687Z,58.90
2018-08-30T09:55:40.252Z,58.90
2018-08-30T09:56:44.597Z,58.90
2018-08-30T09:57:49.041Z,58.90
2018-08-30T09:58:53.480Z,58.80
2018-08-30T09:59:58.489Z,58.90
2018-08-30T10:01:02.822Z,59.00
2018-08-30T10:02:07.724Z,58.90
2018-08-30T10:03:13.518Z,58.90
2018-08-30T10:04:18.883Z,58.90
2018-08-30T10:05:23.262Z,58.90
2018-08-30T10:06:27.611Z,58.80
2018-08-30T10:07:33.092Z,58.90
2018-08-30T10:08:37.579Z,59.00
2018-08-30T10:09:41.929Z,59.20
2018-08-30T10:10:46.391Z,59.20
2018-08-30T10:11:50.745Z,59.10
2018-08-30T10:12:55.229Z,59.10
2018-08-30T10:13:59.638Z,59.20
2018-08-30T10:15:04.001Z,59.20
2018-08-30T10:16:08.341Z,59.10
2018-08-30T10:17:12.709Z,59.40
2018-08-30T10:18:16.921Z,59.30
2018-08-30T10:19:21.327Z,59.20
2018-08-30T10:20:25.790Z,59.10
2018-08-30T10:21:30.242Z,59.10
2018-08-30T10:22:35.238Z,59.20
2018-08-30T10:23:39.894Z,59.30
2018-08-30T10:24:44.221Z,59.30
2018-08-30T10:25:48.418Z,59.30
2018-08-30T10:26:52.740Z,59.20
2018-08-30T10:27:56.948Z,59.80
2018-08-30T10:29:01.420Z,59.20
2018-08-30T10:30:05.898Z,59.10
2018-08-30T10:31:10.241Z,59.10
2018-08-30T10:32:14.715Z,59.20
2018-08-30T10:33:19.223Z,59.10
2018-08-30T10:34:23.659Z,59.20
2018-08-30T10:35:28.438Z,59.00
2018-08-30T10:36:32.873Z,59.10
2018-08-30T10:37:37.229Z,59.10
2018-08-30T10:38:41.724Z,59.10
2018-08-30T10:39:45.965Z,59.00
2018-08-30T10:40:50.340Z,59.40
2018-08-30T10:41:54.664Z,59.70
2018-08-30T10:42:59.091Z,59.90
2018-08-30T10:44:03.458Z,60.10
2018-08-30T10:45:07.839Z,60.20
2018-08-30T10:46:12.184Z,60.30
2018-08-30T10:47:16.502Z,60.50
2018-08-30T10:48:20.866Z,60.50
2018-08-30T10:49:25.410Z,60.50
2018-08-30T10:50:29.827Z,60.50
2018-08-30T10:51:34.291Z,60.50
2018-08-30T10:52:41.870Z,60.60
2018-08-30T10:53:46.247Z,60.70
2018-08-30T10:54:50.668Z,60.60
2018-08-30T10:55:55.151Z,60.60
2018-08-30T10:56:59.564Z,60.70
2018-08-30T10:58:04.708Z,60.70
2018-08-30T10:59:09.128Z,60.70
2018-08-30T11:00:13.484Z,60.70
2018-08-30T11:01:17.680Z,60.70
2018-08-30T11:02:21.936Z,60.70
2018-08-30T11:03:26.535Z,60.70
2018-08-30T11:04:30.880Z,60.70
2018-08-30T11:05:35.286Z,60.70
2018-08-30T11:06:39.785Z,60.70
2018-08-30T11:07:45.007Z,60.70
2018-08-30T11:08:49.421Z,60.80
2018-08-30T11:09:53.806Z,60.80
2018-08-30T11:10:58.036Z,60.70
2018-08-30T11:12:02.568Z,60.70
2018-08-30T11:13:07.193Z,60.70
2018-08-30T11:14:11.537Z,60.80
2018-08-30T11:15:15.908Z,60.90
2018-08-30T11:16:20.216Z,60.80
2018-08-30T11:17:24.646Z,60.90
2018-08-30T11:18:29.166Z,60.80
2018-08-30T11:19:33.801Z,60.80
2018-08-30T11:20:38.284Z,60.90
2018-08-30T11:21:42.814Z,60.90
2018-08-30T11:22:47.564Z,60.80
2018-08-30T11:23:52.048Z,60.90
2018-08-30T11:24:56.376Z,60.90
2018-08-30T11:26:00.773Z,60.80
2018-08-30T11:27:05.109Z,60.70
2018-08-30T11:28:09.400Z,60.50
2018-08-30T11:29:13.863Z,60.50
2018-08-30T11:30:18.344Z,60.40
2018-08-30T11:31:22.835Z,60.20
2018-08-30T11:32:27.141Z,60.10
2018-08-30T11:33:31.433Z,59.90
2018-08-30T11:34:35.919Z,59.90
2018-08-30T11:35:40.167Z,59.70
2018-08-30T11:36:44.718Z,59.60
2018-08-30T11:37:49.208Z,59.60
2018-08-30T11:38:53.544Z,60.00
2018-08-30T11:39:57.969Z,60.10
2018-08-30T11:41:02.407Z,60.10
2018-08-30T11:42:06.854Z,60.10
2018-08-30T11:43:11.452Z,60.90
2018-08-30T11:44:15.829Z,60.30
2018-08-30T11:45:20.326Z,60.20
2018-08-30T11:46:24.804Z,60.30
2018-08-30T11:47:29.087Z,60.40
2018-08-30T11:48:33.318Z,61.10
2018-08-30T11:49:37.807Z,60.50
2018-08-30T11:50:42.055Z,60.70
2018-08-30T11:51:46.430Z,60.70
2018-08-30T11:52:50.711Z,60.70
2018-08-30T11:53:54.969Z,60.70
2018-08-30T11:54:59.202Z,60.60
2018-08-30T11:56:03.573Z,60.50
2018-08-30T11:57:08.070Z,60.50
2018-08-30T11:58:12.464Z,60.50
2018-08-30T11:59:16.929Z,60.50
2018-08-30T12:00:21.239Z,60.50
2018-08-30T12:01:25.653Z,60.50
2018-08-30T12:02:30.165Z,60.40
2018-08-30T12:03:34.576Z,60.30
2018-08-30T12:04:39.054Z,60.20
2018-08-30T12:05:43.625Z,60.20
2018-08-30T12:06:48.109Z,60.10
2018-08-30T12:07:52.725Z,60.20
2018-08-30T12:08:57.258Z,60.10
2018-08-30T12:10:01.608Z,60.10
2018-08-30T12:11:06.227Z,60.20
2018-08-30T12:12:10.369Z,60.30
2018-08-30T12:13:14.632Z,60.20
2018-08-30T12:14:19.045Z,60.40
2018-08-30T12:15:23.656Z,60.40
2018-08-30T12:16:28.244Z,60.50
2018-08-30T12:17:32.637Z,60.40
2018-08-30T12:18:36.935Z,60.30
2018-08-30T12:19:41.307Z,60.30
2018-08-30T12:20:45.769Z,60.40
2018-08-30T12:21:49.961Z,60.40
2018-08-30T12:22:54.413Z,60.10
2018-08-30T12:23:58.648Z,59.90
2018-08-30T12:25:02.929Z,59.80
2018-08-30T12:26:07.398Z,59.70
2018-08-30T12:27:11.750Z,59.60
2018-08-30T12:28:16.140Z,59.50
2018-08-30T12:29:20.689Z,59.10
2018-08-30T12:30:25.149Z,58.90
2018-08-30T12:31:29.497Z,58.80
2018-08-30T12:32:33.885Z,58.60
2018-08-30T12:33:38.253Z,58.50
2018-08-30T12:34:42.757Z,58.40
2018-08-30T12:35:47.036Z,58.30
2018-08-30T12:36:51.369Z,58.20
2018-08-30T12:37:55.625Z,58.10
2018-08-30T12:39:00.148Z,58.10
2018-08-30T12:40:04.599Z,57.90
2018-08-30T12:40:16.314Z,57.80
2018-08-30T12:41:20.779Z,57.80
2018-08-30T12:42:25.130Z,57.70
2018-08-30T12:43:29.688Z,57.70
2018-08-30T12:44:34.225Z,57.60
2018-08-30T12:45:38.645Z,57.60
2018-08-30T12:46:44.021Z,57.50
2018-08-30T12:47:48.398Z,57.50
2018-08-30T12:48:52.915Z,57.40
2018-08-30T12:49:57.298Z,57.30
2018-08-30T12:51:01.756Z,57.30
2018-08-30T12:52:06.168Z,57.30
2018-08-30T12:53:10.587Z,57.30
2018-08-30T12:54:14.892Z,57.30
2018-08-30T12:55:19.332Z,57.30
2018-08-30T12:56:23.776Z,57.30
2018-08-30T12:57:28.055Z,57.30
2018-08-30T12:58:32.399Z,57.20
2018-08-30T12:59:36.759Z,57.20
2018-08-30T13:00:41.166Z,57.20
2018-08-30T13:01:45.656Z,57.10
2018-08-30T13:02:49.945Z,57.10
2018-08-30T13:03:54.458Z,57.00
2018-08-30T13:04:58.922Z,57.10
2018-08-30T13:06:03.375Z,57.10
2018-08-30T13:07:07.628Z,57.10
2018-08-30T13:08:11.922Z,57.10
2018-08-30T13:09:16.480Z,57.00
2018-08-30T13:10:20.731Z,57.00
2018-08-30T13:11:25.038Z,57.00
2018-08-30T13:12:32.363Z,57.00
2018-08-30T13:13:36.614Z,57.00
2018-08-30T13:14:40.946Z,57.00
2018-08-30T13:15:45.237Z,57.00
2018-08-30T13:16:49.695Z,57.00
2018-08-30T13:17:53.956Z,57.00
2018-08-30T13:18:58.177Z,57.00
2018-08-30T13:20:02.593Z,57.00
2018-08-30T13:21:06.887Z,57.00
2018-08-30T13:22:11.394Z,57.10
2018-08-30T13:23:15.745Z,57.00
2018-08-30T13:24:20.262Z,57.00
2018-08-30T13:25:24.757Z,57.00
2018-08-30T13:26:29.046Z,57.00
2018-08-30T13:27:33.613Z,57.00
2018-08-30T13:28:38.110Z,57.00
2018-08-30T13:29:42.557Z,56.90
2018-08-30T13:30:47.035Z,56.90
2018-08-30T13:31:51.571Z,56.90
2018-08-30T13:32:56.060Z,56.90
2018-08-30T13:34:00.501Z,56.80
2018-08-30T13:35:04.704Z,56.80
2018-08-30T13:36:09.299Z,56.80
2018-08-30T13:37:13.675Z,56.80
2018-08-30T13:38:18.419Z,56.80
2018-08-30T13:39:22.701Z,56.70
2018-08-30T13:40:27.189Z,56.70
2018-08-30T13:41:31.682Z,56.70
2018-08-30T13:42:38.345Z,56.70
2018-08-30T13:43:42.788Z,56.70
2018-08-30T13:44:47.229Z,56.70
2018-08-30T13:45:51.740Z,56.70
2018-08-30T13:46:56.327Z,56.70